createdAt,value
2023-03-22T00:01:36.645Z,21.53
2023-03-22T00:04:04.834Z,21.30
2023-03-22T00:06:32.790Z,21.70
2023-03-22T00:09:02.141Z,19.13
2023-03-22T00:11:30.110Z,21.70
2023-03-22T00:13:58.779Z,21.57
2023-03-22T00:16:27.137Z,22.87
2023-03-22T00:18:55.180Z,20.97
2023-03-22T00:21:23.226Z,21.03
2023-03-22T00:23:51.161Z,22.70
2023-03-22T00:26:20.593Z,21.53
2023-03-22T00:28:48.534Z,20.30
2023-03-22T00:31:17.876Z,22.83
2023-03-22T00:33:45.834Z,24.00
2023-03-22T00:36:14.175Z,21.97
2023-03-22T00:38:43.979Z,25.03
2023-03-22T00:41:15.922Z,24.37
2023-03-22T00:43:46.992Z,23.73
2023-03-22T00:46:16.663Z,24.17
2023-03-22T00:48:44.747Z,27.40
2023-03-22T00:51:13.575Z,25.07
2023-03-22T00:53:43.442Z,22.53
2023-03-22T00:56:13.833Z,24.87
2023-03-22T00:58:48.185Z,23.10
2023-03-22T01:01:16.349Z,23.60
2023-03-22T01:03:45.442Z,21.10
2023-03-22T01:06:16.746Z,23.53
2023-03-22T01:08:45.152Z,22.30
2023-03-22T01:11:13.353Z,26.13
2023-03-22T01:13:42.243Z,20.87
2023-03-22T01:16:13.020Z,25.17
2023-03-22T01:18:41.799Z,23.00
2023-03-22T01:21:10.918Z,23.97
2023-03-22T01:23:39.333Z,24.63
2023-03-22T01:26:07.974Z,24.50
2023-03-22T01:28:35.961Z,25.20
2023-03-22T01:31:04.599Z,25.20
2023-03-22T01:33:34.391Z,21.90
2023-03-22T01:36:02.548Z,24.87
2023-03-22T01:38:31.433Z,24.83
2023-03-22T01:41:01.657Z,24.87
2023-03-22T01:43:32.843Z,25.70
2023-03-22T01:46:02.154Z,27.27
2023-03-22T01:48:35.748Z,25.73
2023-03-22T01:51:09.781Z,27.30
2023-03-22T01:54:01.426Z,24.20
2023-03-22T01:56:34.561Z,24.27
2023-03-22T01:59:04.048Z,29.37
2023-03-22T02:01:49.559Z,26.37
2023-03-22T02:04:20.967Z,25.10
2023-03-22T02:06:51.552Z,25.53
2023-03-22T02:09:21.981Z,24.20
2023-03-22T02:11:56.839Z,27.60
2023-03-22T02:14:44.400Z,27.30
2023-03-22T02:17:46.429Z,25.37
2023-03-22T02:20:48.041Z,27.30
2023-03-22T02:23:34.612Z,25.50
2023-03-22T02:26:25.676Z,25.33
2023-03-22T02:28:57.065Z,24.77
2023-03-22T02:31:44.428Z,24.27
2023-03-22T02:34:38.970Z,27.00
2023-03-22T02:37:45.962Z,28.03
2023-03-22T02:40:17.933Z,27.00
2023-03-22T02:42:57.354Z,27.20
2023-03-22T02:45:31.255Z,26.53
2023-03-22T02:48:07.532Z,26.30
2023-03-22T02:50:41.989Z,25.67
2023-03-22T02:53:18.220Z,26.37
2023-03-22T02:55:54.180Z,26.50
2023-03-22T02:58:27.408Z,27.20
2023-03-22T03:01:00.067Z,26.87
2023-03-22T03:03:32.000Z,24.37
2023-03-22T03:06:03.879Z,29.07
2023-03-22T03:08:33.242Z,26.67
2023-03-22T03:11:03.924Z,27.03
2023-03-22T03:13:31.969Z,27.63
2023-03-22T03:16:03.028Z,23.60
2023-03-22T03:18:44.609Z,25.50
2023-03-22T03:21:35.968Z,25.97
2023-03-22T03:24:15.446Z,26.00
2023-03-22T03:26:53.113Z,25.13
2023-03-22T03:29:26.948Z,24.90
2023-03-22T03:32:03.465Z,24.73
2023-03-22T03:34:36.791Z,24.57
2023-03-22T03:37:10.587Z,27.63
2023-03-22T03:39:45.608Z,22.93
2023-03-22T03:42:18.675Z,23.13
2023-03-22T03:44:47.487Z,24.90
2023-03-22T03:47:15.760Z,22.17
2023-03-22T03:49:43.813Z,26.27
2023-03-22T03:52:13.292Z,25.40
2023-03-22T03:54:41.341Z,23.57
2023-03-22T03:57:16.571Z,27.13
2023-03-22T03:59:44.853Z,22.63
2023-03-22T04:02:23.278Z,26.50
2023-03-22T04:04:53.662Z,24.80
2023-03-22T04:07:21.943Z,24.57
2023-03-22T04:09:49.983Z,25.17
2023-03-22T04:12:24.667Z,23.23
2023-03-22T04:15:13.168Z,23.93
2023-03-22T04:17:43.175Z,22.87
2023-03-22T04:20:13.774Z,22.83
2023-03-22T04:22:42.829Z,24.70
2023-03-22T04:25:12.713Z,26.50
2023-03-22T04:27:51.254Z,21.63
2023-03-22T04:30:21.530Z,24.07
2023-03-22T04:33:06.774Z,24.50
2023-03-22T04:36:02.487Z,22.53
2023-03-22T04:38:37.376Z,22.47
2023-03-22T04:41:06.226Z,21.20
2023-03-22T04:43:40.599Z,23.03
2023-03-22T04:46:13.008Z,23.93
2023-03-22T04:48:48.527Z,20.60
2023-03-22T04:51:17.636Z,20.43
2023-03-22T04:54:08.493Z,21.57
2023-03-22T04:56:39.790Z,19.47
2023-03-22T04:59:10.796Z,20.00
2023-03-22T05:01:40.743Z,18.50
2023-03-22T05:04:13.184Z,21.27
2023-03-22T05:06:41.921Z,22.10
2023-03-22T05:09:20.909Z,20.70
2023-03-22T05:11:53.202Z,20.50
2023-03-22T05:14:48.818Z,17.53
2023-03-22T05:17:21.812Z,17.97
2023-03-22T05:19:51.917Z,20.70
2023-03-22T05:22:22.332Z,17.93
2023-03-22T05:24:52.863Z,19.83
2023-03-22T05:27:34.564Z,18.90
2023-03-22T05:30:24.175Z,16.57
2023-03-22T05:33:07.178Z,18.17
2023-03-22T05:35:42.505Z,16.37
2023-03-22T05:38:11.855Z,16.43
2023-03-22T05:40:47.705Z,17.50
2023-03-22T05:43:15.898Z,16.63
2023-03-22T05:45:49.440Z,15.33
2023-03-22T05:48:33.642Z,16.73
2023-03-22T05:51:03.375Z,14.77
2023-03-22T05:53:33.345Z,16.87
2023-03-22T05:56:13.884Z,15.73
2023-03-22T05:58:44.849Z,17.13
2023-03-22T06:01:17.827Z,17.10
2023-03-22T06:04:05.814Z,17.17
2023-03-22T06:06:48.543Z,15.27
2023-03-22T06:09:31.801Z,16.37
2023-03-22T06:12:00.729Z,15.23
2023-03-22T06:14:28.635Z,14.63
2023-03-22T06:17:17.724Z,17.83
2023-03-22T06:19:46.192Z,16.47
2023-03-22T06:22:15.896Z,14.17
2023-03-22T06:24:45.545Z,13.93
2023-03-22T06:27:19.147Z,13.53
2023-03-22T06:29:50.730Z,13.30
2023-03-22T06:32:24.550Z,13.43
2023-03-22T06:34:57.769Z,15.00
2023-03-22T06:37:26.381Z,12.87
2023-03-22T06:39:55.549Z,13.53
2023-03-22T06:42:26.028Z,11.77
2023-03-22T06:45:05.229Z,15.37
2023-03-22T06:47:38.582Z,14.10
2023-03-22T06:50:26.625Z,11.80
2023-03-22T06:53:05.500Z,13.10
2023-03-22T06:55:35.383Z,11.00
2023-03-22T06:58:12.701Z,12.23
2023-03-22T07:00:41.390Z,12.07
2023-03-22T07:03:11.459Z,10.67
2023-03-22T07:05:49.826Z,13.03
2023-03-22T07:08:18.666Z,11.70
2023-03-22T07:10:51.661Z,11.00
2023-03-22T07:13:22.575Z,12.43
2023-03-22T07:15:57.377Z,13.97
2023-03-22T07:18:42.982Z,11.10
2023-03-22T07:21:12.281Z,16.27
2023-03-22T07:23:43.051Z,11.90
2023-03-22T07:26:15.350Z,11.53
2023-03-22T07:28:46.134Z,11.10
2023-03-22T07:31:16.080Z,12.20
2023-03-22T07:34:06.012Z,11.93
2023-03-22T07:36:42.391Z,11.07
2023-03-22T07:39:12.514Z,11.63
2023-03-22T07:41:45.292Z,11.83
2023-03-22T07:44:25.534Z,12.60
2023-03-22T07:47:10.876Z,14.37
2023-03-22T07:50:03.960Z,11.20
2023-03-22T07:52:33.673Z,13.03
2023-03-22T07:55:01.646Z,12.20
2023-03-22T07:57:29.626Z,11.33
2023-03-22T08:00:00.973Z,14.60
2023-03-22T08:02:45.364Z,12.53
2023-03-22T08:05:23.368Z,12.77
2023-03-22T08:07:59.128Z,12.90
2023-03-22T08:10:28.452Z,12.50
2023-03-22T08:12:56.638Z,13.63
2023-03-22T08:15:27.232Z,18.70
2023-03-22T08:17:58.005Z,10.77
2023-03-22T08:20:35.171Z,12.93
2023-03-22T08:23:12.282Z,15.40
2023-03-22T08:26:12.636Z,16.90
2023-03-22T08:28:40.749Z,16.40
2023-03-22T08:31:15.131Z,16.93
2023-03-22T08:33:45.658Z,16.60
2023-03-22T08:36:17.761Z,16.37
2023-03-22T08:38:56.090Z,14.87
2023-03-22T08:41:34.805Z,13.97
2023-03-22T08:44:03.282Z,13.70
2023-03-22T08:46:32.419Z,15.40
2023-03-22T08:49:02.226Z,17.17
2023-03-22T08:51:38.249Z,15.07
2023-03-22T08:54:33.448Z,15.33
2023-03-22T08:57:04.421Z,16.67
2023-03-22T08:59:54.140Z,18.57
2023-03-22T09:02:38.175Z,16.43
2023-03-22T09:05:06.614Z,15.53
2023-03-22T09:07:36.439Z,14.37
2023-03-22T09:10:13.672Z,15.60
2023-03-22T09:12:44.636Z,15.60
2023-03-22T09:15:12.827Z,16.07
2023-03-22T09:17:44.517Z,14.07
2023-03-22T09:20:13.369Z,15.87
2023-03-22T09:22:45.927Z,14.30
2023-03-22T09:25:16.717Z,15.77
2023-03-22T09:27:48.136Z,14.33
2023-03-22T09:30:16.903Z,14.30
2023-03-22T09:32:45.010Z,13.23
2023-03-22T09:35:16.355Z,14.97
2023-03-22T09:37:58.115Z,12.30
2023-03-22T09:40:29.770Z,13.67
2023-03-22T09:43:01.742Z,12.33
2023-03-22T09:45:38.560Z,11.73
2023-03-22T09:48:12.745Z,12.77
2023-03-22T09:50:46.470Z,11.77
2023-03-22T09:53:18.088Z,9.57
2023-03-22T09:55:51.456Z,8.67
2023-03-22T09:58:26.698Z,10.53
2023-03-22T10:00:59.501Z,11.87
2023-03-22T10:03:45.874Z,10.00
2023-03-22T10:06:19.045Z,10.80
2023-03-22T10:08:57.217Z,10.57
2023-03-22T10:11:39.388Z,9.37
2023-03-22T10:14:20.709Z,11.90
2023-03-22T10:16:50.010Z,7.93
2023-03-22T10:19:24.421Z,7.63
2023-03-22T10:21:55.595Z,8.67
2023-03-22T10:24:29.320Z,7.20
2023-03-22T10:26:57.685Z,7.93
2023-03-22T10:29:32.187Z,6.57
2023-03-22T10:32:12.234Z,6.60
2023-03-22T10:34:40.401Z,7.10
2023-03-22T10:37:12.718Z,8.40
2023-03-22T10:39:44.616Z,5.97
2023-03-22T10:42:15.391Z,6.97
2023-03-22T10:44:48.731Z,9.97
2023-03-22T10:47:18.700Z,5.93
2023-03-22T10:49:53.085Z,7.77
2023-03-22T10:52:39.482Z,8.40
2023-03-22T10:55:12.363Z,6.50
2023-03-22T10:57:42.916Z,7.80
2023-03-22T11:00:12.722Z,6.63
2023-03-22T11:02:48.396Z,8.40
2023-03-22T11:05:25.718Z,5.93
2023-03-22T11:07:54.375Z,4.73
2023-03-22T11:10:32.568Z,6.60
2023-03-22T11:13:17.729Z,7.67
2023-03-22T11:15:54.284Z,7.27
2023-03-22T11:18:22.600Z,8.30
2023-03-22T11:20:57.463Z,6.53
2023-03-22T11:23:28.473Z,10.23
2023-03-22T11:26:01.794Z,6.07
2023-03-22T11:28:36.902Z,4.23
2023-03-22T11:31:08.994Z,7.93
2023-03-22T11:33:38.087Z,5.07
2023-03-22T11:36:17.051Z,8.00
2023-03-22T11:38:46.374Z,8.00
2023-03-22T11:41:24.325Z,5.87
2023-03-22T11:43:55.182Z,4.17
2023-03-22T11:46:24.581Z,4.33
2023-03-22T11:48:54.610Z,4.97
2023-03-22T11:51:30.874Z,3.87
2023-03-22T11:54:05.613Z,5.43
2023-03-22T11:56:35.758Z,6.73
2023-03-22T11:59:08.828Z,4.47
2023-03-22T12:01:41.162Z,5.70
2023-03-22T12:04:15.185Z,4.60
2023-03-22T12:06:44.082Z,5.00
2023-03-22T12:09:23.802Z,4.57
2023-03-22T12:11:56.229Z,5.33
2023-03-22T12:14:27.782Z,4.70
2023-03-22T12:16:59.301Z,9.33
2023-03-22T12:19:50.952Z,6.00
2023-03-22T12:22:22.494Z,4.53
2023-03-22T12:24:50.460Z,10.13
2023-03-22T12:27:24.138Z,6.80
2023-03-22T12:29:57.629Z,5.37
2023-03-22T12:32:30.372Z,5.97
2023-03-22T12:35:16.050Z,5.90
2023-03-22T12:37:49.368Z,5.63
2023-03-22T12:40:22.971Z,6.07
2023-03-22T12:43:00.508Z,5.40
2023-03-22T12:45:33.222Z,6.00
2023-03-22T12:48:07.515Z,7.73
2023-03-22T12:50:39.683Z,5.77
2023-03-22T12:53:11.587Z,6.23
2023-03-22T12:55:42.099Z,5.13
2023-03-22T12:58:15.410Z,6.03
2023-03-22T13:00:48.658Z,5.63
2023-03-22T13:03:26.907Z,6.40
2023-03-22T13:06:03.018Z,9.03
2023-03-22T13:09:15.565Z,8.93
2023-03-22T13:11:45.250Z,8.70
2023-03-22T13:14:30.478Z,5.30
2023-03-22T13:17:01.278Z,6.77
2023-03-22T13:19:34.169Z,7.53
2023-03-22T13:22:21.650Z,6.47
2023-03-22T13:25:28.945Z,8.47
2023-03-22T13:27:58.980Z,7.63
2023-03-22T13:30:33.368Z,9.57
2023-03-22T13:33:04.247Z,8.27
2023-03-22T13:35:46.355Z,12.57
2023-03-22T13:38:21.796Z,9.53
2023-03-22T13:40:55.759Z,8.80
2023-03-22T13:43:30.686Z,10.37
2023-03-22T13:46:11.048Z,10.03
2023-03-22T13:48:46.174Z,11.10
2023-03-22T13:51:19.761Z,12.40
2023-03-22T13:53:56.536Z,12.00
2023-03-22T13:56:47.877Z,9.53
2023-03-22T13:59:21.254Z,11.27
2023-03-22T14:01:53.549Z,10.97
2023-03-22T14:04:30.606Z,11.73
2023-03-22T14:07:01.143Z,11.87
2023-03-22T14:09:32.533Z,11.27
2023-03-22T14:12:08.148Z,12.00
2023-03-22T14:14:42.788Z,10.67
2023-03-22T14:17:22.908Z,11.23
2023-03-22T14:19:52.836Z,10.70
